Time;durP1;ratioP1;P1;durP2;ratioP2;P2;SDS_P1;SDS_P2;PMS_P1;PMS_P2;Temp;Humidity;BMP_temperature;BMP_pressure;BME280_temperature;BME280_humidity;BME280_pressure;Samples;Min_cycle;Max_cycle;Signal;HPM_P1;HPM_P2
2023/10/03 00:02:03;;;;;;;;;;;;;;;-144.99;100.00;52411.41;5021136;28;19948;-69
2023/10/03 00:04:31;;;;;;;;;;;;;;;-144.99;100.00;52415.47;5013877;28;19947;-69
2023/10/03 00:06:57;;;;;;;;;;;;;;;-144.99;100.00;52415.47;5010782;28;19960;-70
2023/10/03 00:09:25;;;;;;;;;;;;;;;-144.99;100.00;52407.31;5008542;28;20052;-70
2023/10/03 00:11:52;;;;;;;;;;;;;;;-144.99;100.00;52399.19;5012020;28;19958;-69
2023/10/03 00:14:19;;;;;;;;;;;;;;;-144.99;100.00;52421.59;5008294;28;19944;-69
2023/10/03 00:16:46;;;;;;;;;;;;;;;-144.99;100.00;52431.78;5017805;28;19960;-70
2023/10/03 00:19:12;;;;;;;;;;;;;;;-144.99;100.00;52366.56;5013113;28;20452;-69
2023/10/03 00:21:40;;;;;;;;;;;;;;;-144.99;100.00;52423.63;5011618;28;19998;-69
2023/10/03 00:24:07;;;;;;;;;;;;;;;-144.99;100.00;52439.94;5011207;28;19979;-69
2023/10/03 00:26:34;;;;;;;;;;;;;;;-144.99;100.00;52419.56;5019001;28;19958;-69
2023/10/03 00:29:00;;;;;;;;;;;;;;;-144.99;100.00;52419.56;5012928;28;20005;-69
2023/10/03 00:31:29;;;;;;;;;;;;;;;-144.99;100.00;52417.53;5012343;28;20145;-69
2023/10/03 00:33:56;;;;;;;;;;;;;;;-144.99;100.00;52403.25;5003928;28;19983;-69
2023/10/03 00:36:24;;;;;;;;;;;;;;;-144.99;100.00;52399.19;5012116;28;20001;-68
2023/10/03 00:38:53;;;;;;;;;;;;;;;-144.99;100.00;52427.72;5011491;28;20052;-68
2023/10/03 00:41:20;;;;;;;;;;;;;;;-144.99;100.00;52421.59;5006807;28;19954;-69
2023/10/03 00:43:58;;;;;;;;;;;;;;;-144.99;100.00;52386.94;5018019;28;20055;-69
2023/10/03 00:46:25;;;;;;;;;;;;;;;-144.99;100.00;52391.03;5010931;28;20047;-69
2023/10/03 00:48:52;;;;;;;;;;;;;;;-144.99;100.00;52399.19;5014057;28;20042;-69
2023/10/03 00:51:20;;;;;;;;;;;;;;;-144.99;100.00;52407.31;5019433;28;19994;-70
2023/10/03 00:53:46;;;;;;;;;;;;;;;-144.99;100.00;52407.31;5019045;28;20006;-69
2023/10/03 00:56:15;;;;;;;;;;;;;;;-144.99;100.00;52425.66;5011016;28;20032;-71
2023/10/03 00:58:42;;;;;;;;;;;;;;;-144.99;100.00;52441.97;5014646;28;19953;-70
2023/10/03 01:01:11;;;;;;;;;;;;;;;-144.99;100.00;52427.72;5010681;28;19986;-70
2023/10/03 01:03:38;;;;;;;;;;;;;;;-144.99;100.00;52415.47;5004736;28;20056;-70
2023/10/03 01:06:08;;;;;;;;;;;;;;;-144.99;100.00;52399.19;5011091;28;20059;-70
2023/10/03 01:08:36;;;;;;;;;;;;;;;-144.99;100.00;52423.63;5011932;28;19942;-69
2023/10/03 01:11:04;;;;;;;;;;;;;;;-144.99;100.00;52407.31;5016097;28;20111;-70
2023/10/03 01:13:32;;;;;;;;;;;;;;;-144.99;100.00;52431.78;5010268;28;19945;-70
2023/10/03 01:15:59;;;;;;;;;;;;;;;-144.99;100.00;52415.47;5015752;28;19946;-70
2023/10/03 01:18:27;;;;;;;;;;;;;;;-144.99;100.00;52401.22;5017836;28;19942;-69
2023/10/03 01:21:00;;;;;;;;;;;;;;;-144.99;100.00;52425.66;5014724;28;20341;-69
2023/10/03 01:23:30;;;;;;;;;;;;;;;-144.99;100.00;52425.66;5019639;28;19944;-69
2023/10/03 01:25:57;;;;;;;;;;;;;;;-144.99;100.00;52435.88;5014180;28;19963;-69
2023/10/03 01:28:25;;;;;;;;;;;;;;;-144.99;100.00;52446.06;5010072;28;20139;-69
2023/10/03 01:30:51;;;;;;;;;;;;;;;-144.99;100.00;52417.53;5010202;28;19960;-69
2023/10/03 01:33:18;;;;;;;;;;;;;;;-144.99;100.00;52439.94;5004216;28;19949;-70
2023/10/03 01:35:44;;;;;;;;;;;;;;;-144.99;100.00;52415.47;5010734;28;19943;-70
2023/10/03 01:38:14;;;;;;;;;;;;;;;-144.99;100.00;52431.78;5010229;28;19971;-70
2023/10/03 01:40:42;;;;;;;;;;;;;;;-144.99;100.00;52423.63;5017996;28;19969;-70
2023/10/03 01:43:09;;;;;;;;;;;;;;;-144.99;100.00;52444.03;5010154;28;19995;-70
2023/10/03 01:45:35;;;;;;;;;;;;;;;-144.99;100.00;52386.94;5009610;28;19942;-69
2023/10/03 01:48:05;;;;;;;;;;;;;;;-144.99;100.00;52419.56;5015737;28;20046;-70
2023/10/03 01:50:33;;;;;;;;;;;;;;;-144.99;100.00;52415.47;5020225;28;20371;-70
2023/10/03 01:53:00;;;;;;;;;;;;;;;-144.99;100.00;52427.72;5011191;28;20425;-69
2023/10/03 01:55:26;;;;;;;;;;;;;;;-144.99;100.00;52431.78;5007530;28;20266;-70
2023/10/03 01:57:54;;;;;;;;;;;;;;;-144.99;100.00;52431.78;5009220;28;20008;-69
2023/10/03 02:00:26;;;;;;;;;;;;;;;-144.99;100.00;52439.94;5009599;28;20225;-69
2023/10/03 02:02:56;;;;;;;;;;;;;;;-144.99;100.00;52429.75;5008878;28;20505;-70
2023/10/03 02:05:23;;;;;;;;;;;;;;;-144.99;100.00;52419.56;5009783;28;20430;-70
2023/10/03 02:07:51;;;;;;;;;;;;;;;-144.99;100.00;52413.44;5017983;28;20513;-70
2023/10/03 02:10:18;;;;;;;;;;;;;;;-144.99;100.00;52425.66;5009977;28;19958;-71
2023/10/03 02:12:48;;;;;;;;;;;;;;;-144.99;100.00;52439.94;5009646;28;19945;-70
2023/10/03 02:15:20;;;;;;;;;;;;;;;-144.99;100.00;52444.03;5009764;28;19980;-70
2023/10/03 02:17:49;;;;;;;;;;;;;;;-144.99;100.00;52456.25;5018619;28;19951;-70
2023/10/03 02:20:20;;;;;;;;;;;;;;;-144.99;100.00;52439.94;5017659;28;19971;-70
2023/10/03 02:22:53;;;;;;;;;;;;;;;-144.99;100.00;52423.63;5017830;28;19950;-70
2023/10/03 02:25:20;;;;;;;;;;;;;;;-144.99;100.00;52452.16;5010498;28;19946;-70
2023/10/03 02:27:48;;;;;;;;;;;;;;;-144.99;100.00;52460.31;5009321;28;20385;-70
2023/10/03 02:30:19;;;;;;;;;;;;;;;-144.99;100.00;52433.81;5003936;28;20054;-70
2023/10/03 02:32:47;;;;;;;;;;;;;;;-144.99;100.00;52435.88;5008366;28;20084;-70
2023/10/03 02:35:14;;;;;;;;;;;;;;;-144.99;100.00;52448.09;5023997;22;19974;-73
2023/10/03 02:37:41;;;;;;;;;;;;;;;-144.99;100.00;52464.41;5031429;28;19973;-72
2023/10/03 02:40:08;;;;;;;;;;;;;;;-144.99;100.00;52452.16;5051495;28;20233;-73
2023/10/03 02:42:37;;;;;;;;;;;;;;;-144.99;100.00;52476.63;5023772;28;20366;-73
2023/10/03 02:45:04;;;;;;;;;;;;;;;-144.99;100.00;52411.41;5025262;28;19944;-72
2023/10/03 02:47:31;;;;;;;;;;;;;;;-144.99;100.00;52423.63;5013472;28;19973;-72
2023/10/03 02:49:59;;;;;;;;;;;;;;;-144.99;100.00;52444.03;5019345;28;20401;-73
2023/10/03 02:52:26;;;;;;;;;;;;;;;-144.99;100.00;52423.63;5020468;28;19983;-72
2023/10/03 02:54:52;;;;;;;;;;;;;;;-144.99;100.00;52425.66;5017273;28;19991;-73
2023/10/03 02:57:20;;;;;;;;;;;;;;;-144.99;100.00;52423.63;5019051;28;19964;-73
2023/10/03 02:59:47;;;;;;;;;;;;;;;-144.99;100.00;52391.03;5015473;28;19992;-73
2023/10/03 03:02:14;;;;;;;;;;;;;;;-144.99;100.00;52419.56;5016717;28;20042;-73
2023/10/03 03:04:41;;;;;;;;;;;;;;;-144.99;100.00;52439.94;5023579;28;20391;-73
2023/10/03 03:07:10;;;;;;;;;;;;;;;-144.99;100.00;52444.03;5019074;28;19962;-73
2023/10/03 03:09:36;;;;;;;;;;;;;;;-144.99;100.00;52452.16;5004708;28;20038;-72
2023/10/03 03:12:06;;;;;;;;;;;;;;;-144.99;100.00;52415.47;5022899;28;19945;-73
2023/10/03 03:14:32;;;;;;;;;;;;;;;-144.99;100.00;52378.78;5026093;28;19952;-73
2023/10/03 03:16:59;;;;;;;;;;;;;;;-144.99;100.00;52419.56;5043263;28;20000;-73
2023/10/03 03:19:27;;;;;;;;;;;;;;;-144.99;100.00;52425.66;5029823;28;20116;-72
2023/10/03 03:21:57;;;;;;;;;;;;;;;-144.99;100.00;52417.53;5016497;28;19943;-72
2023/10/03 03:24:33;;;;;;;;;;;;;;;-144.99;100.00;52452.16;5013772;28;20480;-71
2023/10/03 03:27:00;;;;;;;;;;;;;;;-144.99;100.00;52407.31;5015780;28;19968;-71
2023/10/03 03:29:35;;;;;;;;;;;;;;;-144.99;100.00;52444.03;5019787;28;19948;-71
2023/10/03 03:32:04;;;;;;;;;;;;;;;-144.99;100.00;52423.63;5017345;28;20018;-71
2023/10/03 03:34:31;;;;;;;;;;;;;;;-144.99;100.00;52415.47;5012560;28;19953;-71
2023/10/03 03:37:16;;;;;;;;;;;;;;;-144.99;100.00;52437.91;5024147;28;20051;-71
2023/10/03 03:39:53;;;;;;;;;;;;;;;-144.99;100.00;52446.06;5017039;28;19940;-71
2023/10/03 03:42:19;;;;;;;;;;;;;;;-144.99;100.00;52397.13;5017239;28;19943;-71
2023/10/03 03:44:46;;;;;;;;;;;;;;;-144.99;100.00;52439.94;5022566;28;19952;-71
2023/10/03 03:47:12;;;;;;;;;;;;;;;-144.99;100.00;52439.94;5020747;28;19972;-71
2023/10/03 03:49:40;;;;;;;;;;;;;;;-144.99;100.00;52415.47;5028846;28;19930;-73
2023/10/03 03:52:09;;;;;;;;;;;;;;;-144.99;100.00;52452.16;5042150;28;19945;-71
2023/10/03 03:54:35;;;;;;;;;;;;;;;-144.99;100.00;52456.25;5040262;28;19946;-71
2023/10/03 03:57:05;;;;;;;;;;;;;;;-144.99;100.00;52427.72;5051591;28;19944;-71
2023/10/03 03:59:32;;;;;;;;;;;;;;;-144.99;100.00;52435.88;5042283;28;20339;-71
2023/10/03 04:02:00;;;;;;;;;;;;;;;-144.99;100.00;52437.91;5048998;28;20039;-71
2023/10/03 04:04:26;;;;;;;;;;;;;;;-144.99;100.00;52429.75;5046786;28;19941;-72
2023/10/03 04:06:55;;;;;;;;;;;;;;;-144.99;100.00;52423.63;5046406;28;19949;-71
2023/10/03 04:09:21;;;;;;;;;;;;;;;-144.99;100.00;52472.56;5045048;28;19979;-71
2023/10/03 04:11:48;;;;;;;;;;;;;;;-144.99;100.00;52439.94;5044110;28;19951;-71
2023/10/03 04:14:15;;;;;;;;;;;;;;;-144.99;100.00;52460.31;5035965;28;19993;-71
2023/10/03 04:16:43;;;;;;;;;;;;;;;-144.99;100.00;52399.19;5045234;28;19948;-71
2023/10/03 04:19:10;;;;;;;;;;;;;;;-144.99;100.00;52456.25;5053408;28;19992;-71
2023/10/03 04:21:39;;;;;;;;;;;;;;;-144.99;100.00;52407.31;5050892;28;19930;-71
2023/10/03 04:24:09;;;;;;;;;;;;;;;-144.99;100.00;52427.72;5035955;28;19945;-71
2023/10/03 04:26:39;;;;;;;;;;;;;;;-144.99;100.00;52460.31;5037530;28;19985;-70
2023/10/03 04:29:06;;;;;;;;;;;;;;;-144.99;100.00;52444.03;5036493;28;20086;-71
2023/10/03 04:31:33;;;;;;;;;;;;;;;-144.99;100.00;52444.03;5042703;28;19973;-72
2023/10/03 04:34:00;;;;;;;;;;;;;;;-144.99;100.00;52439.94;5030318;28;19965;-72
2023/10/03 04:36:27;;;;;;;;;;;;;;;-144.99;100.00;52403.25;5038572;28;19996;-71
2023/10/03 04:38:54;;;;;;;;;;;;;;;-144.99;100.00;52391.03;5026278;28;19964;-71
2023/10/03 04:41:20;;;;;;;;;;;;;;;-144.99;100.00;52431.78;5017661;28;19993;-72
2023/10/03 04:43:49;;;;;;;;;;;;;;;-144.99;100.00;52470.50;5015844;28;19947;-71
2023/10/03 04:46:16;;;;;;;;;;;;;;;-144.99;100.00;52452.16;5011333;28;19966;-71
2023/10/03 04:48:44;;;;;;;;;;;;;;;-144.99;100.00;52460.31;5014250;28;19963;-70
2023/10/03 04:51:14;;;;;;;;;;;;;;;-144.99;100.00;52433.81;5006695;28;19986;-71
2023/10/03 04:53:40;;;;;;;;;;;;;;;-144.99;100.00;52429.75;5021109;28;20009;-71
2023/10/03 04:56:07;;;;;;;;;;;;;;;-144.99;100.00;52448.09;5019018;28;19964;-71
2023/10/03 04:58:33;;;;;;;;;;;;;;;-144.99;100.00;52446.06;5021951;28;20405;-72
2023/10/03 05:01:00;;;;;;;;;;;;;;;-144.99;100.00;52456.25;5017257;28;19991;-72
2023/10/03 05:03:26;;;;;;;;;;;;;;;-144.99;100.00;52448.09;5011957;28;20316;-71
2023/10/03 05:05:54;;;;;;;;;;;;;;;-144.99;100.00;52423.63;5023128;28;20010;-71
2023/10/03 05:08:20;;;;;;;;;;;;;;;-144.99;100.00;52448.09;5036305;28;19983;-71
2023/10/03 05:10:48;;;;;;;;;;;;;;;-144.99;100.00;52427.72;5021380;28;19962;-72
2023/10/03 05:13:16;;;;;;;;;;;;;;;-144.99;100.00;52439.94;5024167;28;19945;-71
2023/10/03 05:15:43;;;;;;;;;;;;;;;-144.99;100.00;52435.88;5022262;28;19957;-71
2023/10/03 05:18:09;;;;;;;;;;;;;;;-144.99;100.00;52484.78;5023314;28;20296;-71
2023/10/03 05:20:37;;;;;;;;;;;;;;;-144.99;100.00;52472.56;5018691;28;19947;-72
2023/10/03 05:23:05;;;;;;;;;;;;;;;-144.99;100.00;52492.94;5021187;28;19951;-72
2023/10/03 05:25:36;;;;;;;;;;;;;;;-144.99;100.00;52433.81;5022171;28;20103;-71
2023/10/03 05:28:03;;;;;;;;;;;;;;;-144.99;100.00;52472.56;5018548;28;19955;-72
2023/10/03 05:30:31;;;;;;;;;;;;;;;-144.99;100.00;52435.88;5022533;28;19999;-71
2023/10/03 05:32:58;;;;;;;;;;;;;;;-144.99;100.00;52431.78;5018194;28;19954;-72
2023/10/03 05:35:25;;;;;;;;;;;;;;;-144.99;100.00;52460.31;5013927;28;20394;-73
2023/10/03 05:37:51;;;;;;;;;;;;;;;-144.99;100.00;52478.66;5017841;28;19944;-73
2023/10/03 05:40:20;;;;;;;;;;;;;;;-144.99;100.00;52395.09;5013059;28;20005;-71
2023/10/03 05:42:48;;;;;;;;;;;;;;;-144.99;100.00;52439.94;5023008;28;19953;-71
2023/10/03 05:45:15;;;;;;;;;;;;;;;-144.99;100.00;52464.41;5033715;28;19954;-71
2023/10/03 05:47:44;;;;;;;;;;;;;;;-144.99;100.00;52444.03;5034647;28;20080;-73
2023/10/03 05:50:10;;;;;;;;;;;;;;;-144.99;100.00;52444.03;5014829;28;19961;-73
2023/10/03 05:52:37;;;;;;;;;;;;;;;-144.99;100.00;52419.56;5020845;28;19942;-73
2023/10/03 05:55:04;;;;;;;;;;;;;;;-144.99;100.00;52417.53;5019220;28;20046;-73
2023/10/03 05:57:33;;;;;;;;;;;;;;;-144.99;100.00;52395.09;5018801;28;19989;-71
2023/10/03 05:59:59;;;;;;;;;;;;;;;-144.99;100.00;52435.88;5018228;28;19948;-72
2023/10/03 06:02:26;;;;;;;;;;;;;;;-144.99;100.00;52399.19;5016026;28;20314;-72
2023/10/03 06:04:54;;;;;;;;;;;;;;;-144.99;100.00;52448.09;5023049;28;19951;-72
2023/10/03 06:07:20;;;;;;;;;;;;;;;-144.99;100.00;52456.25;5014815;28;20425;-72
2023/10/03 06:09:46;;;;;;;;;;;;;;;-144.99;100.00;52439.94;5020252;28;20418;-72
2023/10/03 06:12:13;;;;;;;;;;;;;;;-144.99;100.00;52448.09;5018987;28;19987;-72
2023/10/03 06:14:41;;;;;;;;;;;;;;;-144.99;100.00;52439.94;5020925;28;19938;-72
2023/10/03 06:17:08;;;;;;;;;;;;;;;-144.99;100.00;52444.03;5025010;28;19996;-72
2023/10/03 06:19:35;;;;;;;;;;;;;;;-144.99;100.00;52444.03;5023829;28;19949;-72
2023/10/03 06:22:01;;;;;;;;;;;;;;;-144.99;100.00;52431.78;5020521;28;20213;-72
2023/10/03 06:24:29;;;;;;;;;;;;;;;-144.99;100.00;52415.47;5033574;28;20766;-73
2023/10/03 06:26:55;;;;;;;;;;;;;;;-144.99;100.00;52448.09;5005381;28;20426;-72
2023/10/03 06:29:23;;;;;;;;;;;;;;;-144.99;100.00;52399.19;5013876;28;20480;-71
2023/10/03 06:31:51;;;;;;;;;;;;;;;-144.99;100.00;52399.19;5023494;28;20013;-73
2023/10/03 06:34:18;;;;;;;;;;;;;;;-144.99;100.00;52423.63;5011552;28;20049;-73
2023/10/03 06:36:45;;;;;;;;;;;;;;;-144.99;100.00;52407.31;5021611;28;20029;-72
2023/10/03 06:39:12;;;;;;;;;;;;;;;-144.99;100.00;52431.78;5020545;28;20384;-72
2023/10/03 06:41:39;;;;;;;;;;;;;;;-144.99;100.00;52435.88;5014663;28;19945;-72
2023/10/03 06:44:05;;;;;;;;;;;;;;;-144.99;100.00;52403.25;5025706;28;19947;-72
2023/10/03 06:46:34;;;;;;;;;;;;;;;-144.99;100.00;52425.66;5018820;28;19964;-72
2023/10/03 06:49:01;;;;;;;;;;;;;;;-144.99;100.00;52431.78;5023794;28;19963;-72
2023/10/03 06:51:28;;;;;;;;;;;;;;;-144.99;100.00;52391.03;5025355;28;19945;-72
2023/10/03 06:53:55;;;;;;;;;;;;;;;-144.99;99.97;52456.25;5017793;28;19953;-72
2023/10/03 06:56:21;;;;;;;;;;;;;;;-144.99;99.78;52415.47;5023329;28;19975;-72
2023/10/03 06:58:48;;;;;;;;;;;;;;;-144.99;99.71;52427.72;5022569;28;19956;-72
2023/10/03 07:01:14;;;;;;;;;;;;;;;-144.99;99.55;52415.47;5046652;28;19940;-72
2023/10/03 07:03:41;;;;;;;;;;;;;;;-144.99;99.23;52456.25;5026016;28;19949;-72
2023/10/03 07:06:09;;;;;;;;;;;;;;;-144.99;98.91;52391.03;5023455;28;20009;-72
2023/10/03 07:08:36;;;;;;;;;;;;;;;-144.99;98.94;52376.75;5017650;28;20052;-72
2023/10/03 07:11:03;;;;;;;;;;;;;;;-144.99;99.05;52419.56;5021359;28;20884;-72
2023/10/03 07:13:29;;;;;;;;;;;;;;;-144.99;98.46;52425.66;5022325;28;19946;-72
2023/10/03 07:15:57;;;;;;;;;;;;;;;-144.99;98.28;52403.25;5021187;28;20037;-73
2023/10/03 07:18:23;;;;;;;;;;;;;;;-144.99;98.22;52413.44;5026970;28;20009;-72
2023/10/03 07:20:50;;;;;;;;;;;;;;;-144.99;98.47;52403.25;5029483;28;19951;-72
2023/10/03 07:23:19;;;;;;;;;;;;;;;-144.99;98.22;52407.31;5026297;28;20328;-72
2023/10/03 07:25:46;;;;;;;;;;;;;;;-144.99;97.94;52378.78;5028471;28;19990;-71
2023/10/03 07:28:14;;;;;;;;;;;;;;;-144.99;97.80;52415.47;5020348;28;19966;-71
2023/10/03 07:30:41;;;;;;;;;;;;;;;-144.99;97.36;52395.09;5025784;28;20027;-71
2023/10/03 07:33:08;;;;;;;;;;;;;;;-144.99;97.28;52395.09;5019200;28;19947;-72
2023/10/03 07:35:41;;;;;;;;;;;;;;;-144.99;97.04;52417.53;5019393;28;19962;-72
2023/10/03 07:38:10;;;;;;;;;;;;;;;-144.99;97.10;52378.78;5037470;28;19929;-72
2023/10/03 07:40:39;;;;;;;;;;;;;;;-144.99;97.02;52407.31;5025642;28;20022;-72
2023/10/03 07:43:07;;;;;;;;;;;;;;;-144.99;96.82;52382.88;5024683;28;19943;-72
2023/10/03 07:45:33;;;;;;;;;;;;;;;-144.99;96.53;52399.19;5015260;28;20482;-72
2023/10/03 07:48:04;;;;;;;;;;;;;;;-144.99;95.68;52382.88;5015980;28;19971;-72
2023/10/03 07:50:31;;;;;;;;;;;;;;;-144.99;94.96;52407.31;5013616;28;19945;-72
2023/10/03 07:52:57;;;;;;;;;;;;;;;-144.99;94.19;52370.63;5023008;28;20004;-72
2023/10/03 07:55:25;;;;;;;;;;;;;;;-144.99;93.67;52358.41;5019279;28;20037;-73
2023/10/03 07:57:54;;;;;;;;;;;;;;;-144.99;93.40;52368.59;5022791;28;19941;-73
2023/10/03 08:00:26;;;;;;;;;;;;;;;-144.99;92.73;52366.56;5017486;28;19943;-72
2023/10/03 08:02:52;;;;;;;;;;;;;;;-144.99;92.38;52364.53;5019017;28;19951;-72
2023/10/03 08:05:19;;;;;;;;;;;;;;;-144.99;91.29;52338.03;5024073;28;19962;-73
2023/10/03 08:07:47;;;;;;;;;;;;;;;-144.99;91.28;52354.34;5018453;28;19951;-73
2023/10/03 08:10:14;;;;;;;;;;;;;;;-144.99;91.19;52366.56;5020790;28;19943;-73
2023/10/03 08:12:41;;;;;;;;;;;;;;;-144.99;89.93;52362.50;5024337;28;20423;-72
2023/10/03 08:15:17;;;;;;;;;;;;;;;-144.99;90.09;52338.03;5043160;28;19939;-72
2023/10/03 08:17:44;;;;;;;;;;;;;;;-144.99;89.50;52317.66;5033829;28;20023;-72
2023/10/03 08:20:14;;;;;;;;;;;;;;;-144.99;88.92;52350.25;5020452;28;20389;-73
2023/10/03 08:22:41;;;;;;;;;;;;;;;-144.99;87.83;52346.19;5021517;28;19975;-72
2023/10/03 08:25:08;;;;;;;;;;;;;;;-144.99;87.24;52321.72;5021042;28;20022;-73
2023/10/03 08:27:34;;;;;;;;;;;;;;;-144.99;87.94;52338.03;5023504;28;19986;-73
2023/10/03 08:30:03;;;;;;;;;;;;;;;-144.99;87.88;52350.25;5018700;28;20046;-73
2023/10/03 08:32:31;;;;;;;;;;;;;;;-144.99;89.01;52401.22;5022598;28;20362;-73
2023/10/03 08:34:57;;;;;;;;;;;;;;;-144.99;90.04;52374.72;5019041;28;19956;-72
2023/10/03 08:37:24;;;;;;;;;;;;;;;-144.99;90.26;52366.56;5044393;22;19966;-73
2023/10/03 08:39:51;;;;;;;;;;;;;;;-144.99;90.56;52378.78;5045317;28;19955;-72
2023/10/03 08:42:21;;;;;;;;;;;;;;;-144.99;90.42;52340.06;5051123;28;19942;-73
2023/10/03 08:44:51;;;;;;;;;;;;;;;-144.99;90.76;52346.19;5047436;28;19945;-72
2023/10/03 08:47:21;;;;;;;;;;;;;;;-144.99;90.12;52374.72;5050985;28;19952;-71
2023/10/03 08:49:56;;;;;;;;;;;;;;;-144.99;89.50;52391.03;5052147;28;19971;-72
2023/10/03 08:52:38;;;;;;;;;;;;;;;-144.99;89.34;52331.91;5063988;28;19982;-74
2023/10/03 08:55:06;;;;;;;;;;;;;;;-144.99;89.21;52362.50;5033385;28;20244;-71
2023/10/03 08:57:35;;;;;;;;;;;;;;;-144.99;89.79;52342.09;5050886;28;20055;-72
2023/10/03 09:00:03;;;;;;;;;;;;;;;-144.99;89.76;52378.78;5041955;28;19955;-70
2023/10/03 09:02:31;;;;;;;;;;;;;;;-144.99;90.53;52374.72;5048498;28;20027;-73
2023/10/03 09:05:12;;;;;;;;;;;;;;;-144.99;90.73;52352.28;5040334;28;19946;-74
2023/10/03 09:07:44;;;;;;;;;;;;;;;-144.99;90.69;52395.09;5047431;28;19941;-73
2023/10/03 09:10:22;;;;;;;;;;;;;;;-144.99;90.96;52366.56;5044910;28;19970;-72
2023/10/03 09:12:49;;;;;;;;;;;;;;;-144.99;90.63;52356.38;5049422;28;19943;-72
2023/10/03 09:15:17;;;;;;;;;;;;;;;-144.99;89.61;52350.25;5051326;28;19955;-72
2023/10/03 09:17:43;;;;;;;;;;;;;;;-144.99;87.62;52350.25;5055633;28;19948;-73
2023/10/03 09:20:19;;;;;;;;;;;;;;;-144.99;86.26;52333.94;5049166;28;20027;-72
2023/10/03 09:22:46;;;;;;;;;;;;;;;-144.99;86.26;52342.09;5052862;28;20032;-73
2023/10/03 09:25:16;;;;;;;;;;;;;;;-144.99;86.46;52366.56;5059184;28;19990;-73
2023/10/03 09:27:44;;;;;;;;;;;;;;;-144.99;87.11;52386.94;5053940;28;19956;-73
2023/10/03 09:30:22;;;;;;;;;;;;;;;-144.99;87.48;52342.09;5053562;28;19965;-71
2023/10/03 09:32:50;;;;;;;;;;;;;;;-144.99;87.20;52415.47;5068139;28;19948;-71
2023/10/03 09:35:18;;;;;;;;;;;;;;;-144.99;87.51;52382.88;5072208;28;19955;-74
2023/10/03 09:37:48;;;;;;;;;;;;;;;-144.99;87.46;52374.72;5058203;28;19961;-72
2023/10/03 09:40:17;;;;;;;;;;;;;;;-144.99;87.76;52370.63;5055378;28;19988;-73
2023/10/03 09:42:48;;;;;;;;;;;;;;;-144.99;88.08;52388.97;5061287;28;19940;-73
2023/10/03 09:45:17;;;;;;;;;;;;;;;-144.99;88.60;52413.44;5054533;28;19970;-73
2023/10/03 09:47:44;;;;;;;;;;;;;;;-144.99;89.23;52407.31;5059576;28;19953;-72
2023/10/03 09:50:10;;;;;;;;;;;;;;;-144.99;89.34;52391.03;5050022;28;20117;-72
2023/10/03 09:52:38;;;;;;;;;;;;;;;-144.99;89.50;52399.19;5035738;28;19946;-72
2023/10/03 09:55:17;;;;;;;;;;;;;;;-144.99;89.74;52439.94;5051148;28;20355;-72
2023/10/03 09:57:45;;;;;;;;;;;;;;;-144.99;90.38;52395.09;5035042;28;19944;-70
2023/10/03 10:00:23;;;;;;;;;;;;;;;-144.99;90.91;52419.56;5051663;28;20069;-72
2023/10/03 10:02:54;;;;;;;;;;;;;;;-144.99;91.78;52393.06;5051266;28;20326;-73
2023/10/03 10:05:22;;;;;;;;;;;;;;;-144.99;92.30;52366.56;5057505;28;20381;-71
2023/10/03 10:07:54;;;;;;;;;;;;;;;-144.99;93.99;52382.88;5053283;28;19944;-73
2023/10/03 10:10:21;;;;;;;;;;;;;;;-144.99;95.85;52382.88;5054006;28;19970;-72
2023/10/03 10:13:05;;;;;;;;;;;;;;;-144.99;97.12;52407.31;5034352;28;19999;-72
2023/10/03 10:15:31;;;;;;;;;;;;;;;-144.99;98.89;52407.31;5051026;28;19943;-72
2023/10/03 10:17:58;;;;;;;;;;;;;;;-144.99;99.58;52407.31;5068839;28;19943;-74
2023/10/03 10:20:32;;;;;;;;;;;;;;;-144.99;99.81;52391.03;5044547;28;19993;-71
2023/10/03 10:23:20;;;;;;;;;;;;;;;-144.99;99.44;52407.31;5039664;28;19952;-71
2023/10/03 10:25:56;;;;;;;;;;;;;;;-144.99;99.48;52395.09;5051022;28;19946;-72
2023/10/03 10:28:27;;;;;;;;;;;;;;;-144.99;100.00;52423.63;5039471;28;19942;-71
2023/10/03 10:31:15;;;;;;;;;;;;;;;-144.99;100.00;52425.66;5050583;28;20069;-70
2023/10/03 10:33:42;;;;;;;;;;;;;;;-144.99;100.00;52427.72;5049724;28;19970;-73
2023/10/03 10:36:10;;;;;;;;;;;;;;;-144.99;100.00;52423.63;5045964;28;20006;-74
2023/10/03 10:38:53;;;;;;;;;;;;;;;-144.99;100.00;52435.88;5048563;28;20415;-76
2023/10/03 10:41:26;;;;;;;;;;;;;;;-144.99;100.00;52423.63;5048845;28;19945;-73
2023/10/03 10:44:09;;;;;;;;;;;;;;;-144.99;100.00;52462.34;5055825;28;20381;-76
2023/10/03 10:46:37;;;;;;;;;;;;;;;-144.99;100.00;52415.47;5040463;28;19946;-74
2023/10/03 10:49:06;;;;;;;;;;;;;;;-144.99;100.00;52456.25;5042973;28;19979;-72
2023/10/03 10:51:33;;;;;;;;;;;;;;;-144.99;100.00;52439.94;5042472;28;19943;-72
2023/10/03 10:54:04;;;;;;;;;;;;;;;-144.99;100.00;52407.31;5034713;28;20045;-72
2023/10/03 10:56:32;;;;;;;;;;;;;;;-144.99;100.00;52423.63;5041367;28;20032;-73
2023/10/03 10:59:04;;;;;;;;;;;;;;;-144.99;100.00;52431.78;5046770;28;20186;-73
2023/10/03 11:01:31;;;;;;;;;;;;;;;-144.99;100.00;52464.41;5049890;28;19947;-75
2023/10/03 11:03:59;;;;;;;;;;;;;;;-144.99;100.00;52403.25;5044268;28;19947;-72
2023/10/03 11:06:26;;;;;;;;;;;;;;;-144.99;100.00;52427.72;5057707;28;20297;-72
2023/10/03 11:08:52;;;;;;;;;;;;;;;-144.99;100.00;52431.78;5045779;28;20423;-74
2023/10/03 11:11:20;;;;;;;;;;;;;;;-144.99;100.00;52431.78;5049667;28;19939;-75
2023/10/03 11:13:48;;;;;;;;;;;;;;;-144.99;100.00;52415.47;5045960;28;20378;-74
2023/10/03 11:16:21;;;;;;;;;;;;;;;-144.99;100.00;52452.16;5052693;28;20041;-72
2023/10/03 11:18:49;;;;;;;;;;;;;;;-144.99;100.00;52429.75;5048442;28;19944;-73
2023/10/03 11:21:16;;;;;;;;;;;;;;;-144.99;100.00;52456.25;5061499;28;20299;-74
2023/10/03 11:23:58;;;;;;;;;;;;;;;-144.99;100.00;52399.19;5062267;28;20016;-73
2023/10/03 11:26:26;;;;;;;;;;;;;;;-144.99;100.00;52431.78;5052103;28;20149;-75
2023/10/03 11:28:52;;;;;;;;;;;;;;;-144.99;100.00;52444.03;5055824;28;19982;-72
2023/10/03 11:31:19;;;;;;;;;;;;;;;-144.99;100.00;52435.88;5055744;28;20039;-74
2023/10/03 11:33:46;;;;;;;;;;;;;;;-144.99;100.00;52376.75;5053628;28;19951;-73
2023/10/03 11:36:14;;;;;;;;;;;;;;;-144.99;100.00;52413.44;5055243;28;19999;-76
2023/10/03 11:38:47;;;;;;;;;;;;;;;-144.99;100.00;52427.72;5052747;28;19941;-74
2023/10/03 11:41:13;;;;;;;;;;;;;;;-144.99;100.00;52423.63;5054830;28;19956;-75
2023/10/03 11:43:46;;;;;;;;;;;;;;;-144.99;100.00;52456.25;5061522;28;20303;-73
2023/10/03 11:46:12;;;;;;;;;;;;;;;-144.99;100.00;52429.75;5065497;28;19940;-76
2023/10/03 11:48:39;;;;;;;;;;;;;;;-144.99;100.00;52427.72;5072029;28;20503;-74
2023/10/03 11:51:05;;;;;;;;;;;;;;;-144.99;100.00;52427.72;5062733;28;19965;-75
2023/10/03 11:53:32;;;;;;;;;;;;;;;-144.99;100.00;52419.56;5065624;28;20000;-73
2023/10/03 11:55:58;;;;;;;;;;;;;;;-144.99;100.00;52468.47;5063141;28;20448;-71
2023/10/03 11:58:26;;;;;;;;;;;;;;;-144.99;100.00;52460.31;5056610;28;19944;-75
2023/10/03 12:00:54;;;;;;;;;;;;;;;-144.99;100.00;52439.94;5061348;28;19957;-76
2023/10/03 12:03:21;;;;;;;;;;;;;;;-144.99;100.00;52448.09;5056598;28;19961;-77
2023/10/03 12:05:49;;;;;;;;;;;;;;;-144.99;100.00;52452.16;5050072;28;19949;-74
2023/10/03 12:08:15;;;;;;;;;;;;;;;-144.99;100.00;52439.94;5039857;28;19956;-76
2023/10/03 12:10:42;;;;;;;;;;;;;;;-144.99;100.00;52468.47;5043169;28;19972;-78
2023/10/03 12:13:09;;;;;;;;;;;;;;;-144.99;100.00;52466.44;5060694;28;20004;-74
2023/10/03 12:15:41;;;;;;;;;;;;;;;-144.99;100.00;52431.78;5053293;28;19955;-74
2023/10/03 12:18:09;;;;;;;;;;;;;;;-144.99;100.00;52431.78;5041022;28;19946;-74
2023/10/03 12:20:38;;;;;;;;;;;;;;;-144.99;100.00;52439.94;5045330;28;19959;-75
2023/10/03 12:23:04;;;;;;;;;;;;;;;-144.99;100.00;52456.25;5054344;28;19953;-73
2023/10/03 12:25:31;;;;;;;;;;;;;;;-144.99;100.00;52476.63;5056161;28;19944;-76
2023/10/03 12:27:57;;;;;;;;;;;;;;;-144.99;100.00;52482.75;5048583;28;19946;-74